Terminal Aerodrome Forecast
Issued by NWS Sioux Falls, SD

Home | Current Version | Previous Version | Text Only | Print | Product List | Glossary On
Versions: 1 2 3 4 5 6 7 8 9 10 11 12 13 14 15 16 17 18
002
FTUS43 KFSD 161720
TAFFSD
TAF
KFSD 161720Z 1618/1718 03005KT P6SM -FZDZ OVC010
     FM162100 36006KT 5SM -FZRASN OVC010
     FM170100 34007KT P6SM OVC008
     FM170400 34007KT P6SM BKN025
     FM170800 33006KT P6SM SCT035
     FM171700 27005KT P6SM FEW150=

USA.gov is the U.S. government's official web portal to all federal, state and local government web resources and services.